Time;durP1;ratioP1;P1;durP2;ratioP2;P2;SDS_P1;SDS_P2;PMS_P1;PMS_P2;Temp;Humidity;BMP_temperature;BMP_pressure;BME280_temperature;BME280_humidity;BME280_pressure;Samples;Min_cycle;Max_cycle;Signal;HPM_P1;HPM_P2
2022/02/15 00:00:48;;;;;;;4.00;1.50;;;;;;;;;;4898174;29;20243;-70
2022/02/15 00:03:16;;;;;;;7.00;2.13;;;;;;;;;;4932597;29;20240;-70
2022/02/15 00:05:41;;;;;;;4.00;1.60;;;;;;;;;;4921316;29;20236;-70
2022/02/15 00:08:09;;;;;;;4.30;1.80;;;;;;;;;;4952228;28;20223;-69
2022/02/15 00:10:40;;;;;;;4.07;1.80;;;;;;;;;;4914997;29;20223;-69
2022/02/15 00:13:05;;;;;;;4.90;1.97;;;;;;;;;;4923632;28;20247;-69
2022/02/15 00:15:33;;;;;;;2.73;1.57;;;;;;;;;;4925306;29;20231;-68
2022/02/15 00:17:59;;;;;;;3.90;1.70;;;;;;;;;;4952429;28;20677;-69
2022/02/15 00:20:26;;;;;;;6.17;1.80;;;;;;;;;;4935152;28;20246;-70
2022/02/15 00:22:54;;;;;;;4.90;1.47;;;;;;;;;;4919168;29;20251;-69
2022/02/15 00:25:20;;;;;;;5.20;1.50;;;;;;;;;;4900705;29;20252;-69
2022/02/15 00:27:48;;;;;;;4.50;1.80;;;;;;;;;;4919833;29;20228;-69
2022/02/15 00:30:19;;;;;;;6.07;1.90;;;;;;;;;;4919282;29;20549;-69
2022/02/15 00:32:44;;;;;;;4.23;1.73;;;;;;;;;;4954555;28;20231;-69
2022/02/15 00:35:10;;;;;;;4.13;1.70;;;;;;;;;;4922127;28;20222;-69
2022/02/15 00:37:43;;;;;;;5.83;1.80;;;;;;;;;;4921888;29;20624;-70
2022/02/15 00:40:12;;;;;;;5.37;1.70;;;;;;;;;;4903466;29;20622;-69
2022/02/15 00:42:38;;;;;;;4.97;1.40;;;;;;;;;;4919195;29;20317;-70
2022/02/15 00:45:04;;;;;;;4.07;1.57;;;;;;;;;;4938416;28;20322;-69
2022/02/15 00:47:30;;;;;;;3.93;1.60;;;;;;;;;;4908748;29;20736;-69
2022/02/15 00:49:55;;;;;;;6.67;1.67;;;;;;;;;;4919771;29;20235;-68
2022/02/15 00:52:20;;;;;;;4.00;1.70;;;;;;;;;;4915322;28;20261;-69
2022/02/15 00:54:46;;;;;;;6.90;1.60;;;;;;;;;;4928188;29;20828;-70
2022/02/15 00:57:15;;;;;;;6.43;1.80;;;;;;;;;;4917834;29;20282;-70
2022/02/15 00:59:44;;;;;;;6.23;1.80;;;;;;;;;;4925175;29;20611;-69
2022/02/15 01:02:09;;;;;;;5.97;1.77;;;;;;;;;;4915311;28;20226;-69
2022/02/15 01:04:37;;;;;;;3.17;1.70;;;;;;;;;;4922755;29;20261;-69
2022/02/15 01:07:03;;;;;;;5.47;1.83;;;;;;;;;;4931503;28;20277;-70
2022/02/15 01:09:29;;;;;;;4.70;1.80;;;;;;;;;;4955614;28;20226;-70
2022/02/15 01:11:55;;;;;;;4.27;1.80;;;;;;;;;;4931031;29;20226;-70
2022/02/15 01:14:21;;;;;;;5.57;1.67;;;;;;;;;;4904696;29;20742;-69
2022/02/15 01:16:49;;;;;;;5.40;2.00;;;;;;;;;;4907651;29;20210;-69
2022/02/15 01:19:19;;;;;;;3.23;1.70;;;;;;;;;;4921638;28;20230;-68
2022/02/15 01:21:44;;;;;;;3.80;1.87;;;;;;;;;;4950203;28;20230;-69
2022/02/15 01:24:10;;;;;;;5.47;1.80;;;;;;;;;;4934490;29;20235;-67
2022/02/15 01:26:38;;;;;;;6.10;2.00;;;;;;;;;;4905540;29;20236;-69
2022/02/15 01:29:09;;;;;;;6.90;2.20;;;;;;;;;;4954411;28;20649;-69
2022/02/15 01:31:34;;;;;;;5.60;1.97;;;;;;;;;;4934332;29;20223;-69
2022/02/15 01:34:03;;;;;;;5.13;2.30;;;;;;;;;;4918287;29;20235;-70
2022/02/15 01:36:28;;;;;;;4.53;2.00;;;;;;;;;;4918061;29;20776;-69
2022/02/15 01:38:56;;;;;;;3.43;1.70;;;;;;;;;;4915252;29;20228;-69
2022/02/15 01:41:24;;;;;;;5.27;1.90;;;;;;;;;;4914272;29;20757;-69
2022/02/15 01:43:50;;;;;;;7.07;1.90;;;;;;;;;;4889536;29;20235;-69
2022/02/15 01:46:16;;;;;;;6.43;2.10;;;;;;;;;;4936894;28;20732;-69
2022/02/15 01:48:47;;;;;;;7.33;2.87;;;;;;;;;;4904838;29;20278;-69
2022/02/15 01:51:16;;;;;;;4.03;2.03;;;;;;;;;;4917252;29;20702;-70
2022/02/15 01:53:42;;;;;;;4.00;2.33;;;;;;;;;;4932682;29;20246;-69
2022/02/15 01:56:11;;;;;;;6.37;2.40;;;;;;;;;;4922525;28;20705;-69
2022/02/15 01:58:38;;;;;;;5.97;2.47;;;;;;;;;;4907906;29;20223;-68
2022/02/15 02:01:13;;;;;;;6.67;2.60;;;;;;;;;;4903660;29;20302;-68
2022/02/15 02:03:45;;;;;;;5.60;2.70;;;;;;;;;;4902846;29;20254;-68
2022/02/15 02:06:12;;;;;;;5.07;2.53;;;;;;;;;;4936361;28;20724;-68
2022/02/15 02:08:40;;;;;;;5.73;2.90;;;;;;;;;;4907794;29;20219;-68
2022/02/15 02:11:07;;;;;;;4.63;2.50;;;;;;;;;;4934404;29;20234;-69
2022/02/15 02:13:35;;;;;;;8.03;2.60;;;;;;;;;;4913925;29;20739;-68
2022/02/15 02:16:08;;;;;;;5.60;3.10;;;;;;;;;;4936210;28;20230;-69
2022/02/15 02:18:49;;;;;;;5.17;3.00;;;;;;;;;;4896934;29;20302;-69
2022/02/15 02:21:35;;;;;;;5.60;2.73;;;;;;;;;;4901714;29;20231;-69
2022/02/15 02:24:01;;;;;;;4.50;3.00;;;;;;;;;;4915735;29;20251;-69
2022/02/15 02:26:30;;;;;;;5.87;3.30;;;;;;;;;;4895148;28;20242;-69
2022/02/15 02:28:58;;;;;;;6.30;3.60;;;;;;;;;;4919687;29;20222;-70
2022/02/15 02:31:30;;;;;;;7.20;3.27;;;;;;;;;;4935263;29;20229;-69
2022/02/15 02:34:03;;;;;;;7.00;3.40;;;;;;;;;;4907992;29;20682;-69
2022/02/15 02:36:40;;;;;;;4.90;3.33;;;;;;;;;;4902352;29;20314;-68
2022/02/15 02:39:09;;;;;;;4.90;3.43;;;;;;;;;;4914280;28;20708;-69
2022/02/15 02:41:35;;;;;;;6.23;3.70;;;;;;;;;;4920655;29;20230;-69
2022/02/15 02:44:01;;;;;;;5.67;3.80;;;;;;;;;;4923857;29;20310;-70
2022/02/15 02:46:29;;;;;;;6.97;3.40;;;;;;;;;;4901393;29;20313;-69
2022/02/15 02:48:55;;;;;;;7.57;3.53;;;;;;;;;;4927155;29;20293;-69
2022/02/15 02:51:23;;;;;;;6.00;3.50;;;;;;;;;;4903869;28;20317;-70
2022/02/15 02:53:51;;;;;;;8.33;4.07;;;;;;;;;;4897916;29;20232;-69
2022/02/15 02:56:21;;;;;;;5.80;3.93;;;;;;;;;;4916948;29;20239;-69
2022/02/15 02:58:53;;;;;;;4.87;3.40;;;;;;;;;;4924649;29;20239;-69
2022/02/15 03:01:18;;;;;;;6.30;3.90;;;;;;;;;;4918633;28;20218;-70
2022/02/15 03:03:44;;;;;;;7.40;4.37;;;;;;;;;;4913391;29;20282;-68
2022/02/15 03:06:11;;;;;;;7.10;4.77;;;;;;;;;;4900990;29;20282;-68
2022/02/15 03:08:36;;;;;;;7.23;4.60;;;;;;;;;;4908994;29;20250;-69
2022/02/15 03:11:02;;;;;;;6.50;4.40;;;;;;;;;;4904271;28;20222;-69
2022/02/15 03:13:33;;;;;;;9.43;4.87;;;;;;;;;;4949245;28;20228;-70
2022/02/15 03:16:02;;;;;;;7.60;4.30;;;;;;;;;;4901175;29;20286;-69
2022/02/15 03:18:31;;;;;;;7.53;5.17;;;;;;;;;;4901849;29;20720;-69
2022/02/15 03:21:03;;;;;;;9.37;5.10;;;;;;;;;;4920474;28;20222;-69
2022/02/15 03:23:28;;;;;;;7.70;4.80;;;;;;;;;;4918206;29;20742;-69
2022/02/15 03:25:54;;;;;;;8.03;4.67;;;;;;;;;;4901380;29;20693;-70
2022/02/15 03:28:22;;;;;;;6.40;4.87;;;;;;;;;;4933472;29;20279;-70
2022/02/15 03:30:50;;;;;;;8.70;5.63;;;;;;;;;;4936642;29;20253;-70
2022/02/15 03:33:21;;;;;;;6.57;5.17;;;;;;;;;;4919675;28;20231;-70
2022/02/15 03:35:46;;;;;;;9.93;5.70;;;;;;;;;;4917610;29;20306;-69
2022/02/15 03:38:14;;;;;;;6.63;4.80;;;;;;;;;;4901327;29;20223;-69
2022/02/15 03:43:40;;;;;;;5.73;4.67;;;;;;;;;;4923422;29;20237;-69
2022/02/15 03:46:10;;;;;;;8.53;5.17;;;;;;;;;;4916100;29;20867;-70
2022/02/15 03:48:38;;;;;;;8.57;5.00;;;;;;;;;;4901472;29;20231;-68
2022/02/15 03:51:04;;;;;;;6.07;4.97;;;;;;;;;;4918570;28;20306;-69
2022/02/15 03:53:34;;;;;;;7.27;5.13;;;;;;;;;;4919316;28;20780;-70
2022/02/15 03:56:04;;;;;;;6.73;4.77;;;;;;;;;;4905179;29;20216;-69
2022/02/15 03:58:33;;;;;;;7.87;4.93;;;;;;;;;;4890481;29;20243;-69
2022/02/15 04:01:04;;;;;;;7.57;5.40;;;;;;;;;;4922295;28;20253;-69
2022/02/15 04:03:32;;;;;;;8.17;5.40;;;;;;;;;;4922978;29;20712;-70
2022/02/15 04:05:59;;;;;;;6.93;5.47;;;;;;;;;;4923268;29;20238;-68
2022/02/15 04:08:25;;;;;;;8.00;5.40;;;;;;;;;;4917319;29;20219;-69
2022/02/15 04:10:53;;;;;;;6.77;5.63;;;;;;;;;;4924788;29;20305;-69
2022/02/15 04:13:27;;;;;;;6.30;5.10;;;;;;;;;;4926200;29;20223;-70
2022/02/15 04:15:55;;;;;;;7.73;5.30;;;;;;;;;;4905002;29;20231;-70
2022/02/15 04:18:23;;;;;;;8.53;5.37;;;;;;;;;;4903400;29;20231;-70
2022/02/15 04:20:49;;;;;;;8.43;5.67;;;;;;;;;;4917086;29;20230;-68
2022/02/15 04:23:17;;;;;;;6.10;4.87;;;;;;;;;;4938797;28;20322;-69
2022/02/15 04:25:45;;;;;;;7.53;5.90;;;;;;;;;;4927623;29;20224;-69
2022/02/15 04:28:24;;;;;;;7.80;5.63;;;;;;;;;;4918991;28;20225;-69
2022/02/15 04:30:51;;;;;;;7.60;5.97;;;;;;;;;;4929402;29;20293;-69
2022/02/15 04:33:20;;;;;;;6.60;5.80;;;;;;;;;;4929992;28;20720;-68
2022/02/15 04:35:45;;;;;;;6.83;6.03;;;;;;;;;;4938340;29;20222;-69
2022/02/15 04:38:12;;;;;;;8.20;6.13;;;;;;;;;;4930682;29;20606;-69
2022/02/15 04:40:38;;;;;;;6.77;6.00;;;;;;;;;;4932401;29;20230;-70
2022/02/15 04:43:06;;;;;;;6.97;5.87;;;;;;;;;;4907115;28;20230;-69
2022/02/15 04:45:32;;;;;;;6.63;5.50;;;;;;;;;;4948300;28;20314;-69
2022/02/15 04:47:57;;;;;;;5.57;4.97;;;;;;;;;;4903489;29;20234;-69
2022/02/15 04:50:28;;;;;;;6.47;4.50;;;;;;;;;;4924327;29;20224;-69
2022/02/15 04:52:54;;;;;;;5.20;4.00;;;;;;;;;;4912676;29;20285;-70
2022/02/15 04:55:23;;;;;;;6.60;4.47;;;;;;;;;;4913136;29;20239;-69
2022/02/15 04:57:54;;;;;;;4.17;3.77;;;;;;;;;;4897522;29;20232;-69
2022/02/15 05:00:20;;;;;;;8.03;4.50;;;;;;;;;;4931019;28;20276;-71
2022/02/15 05:03:11;;;;;;;8.30;4.83;;;;;;;;;;4926851;28;20234;-70
2022/02/15 05:05:37;;;;;;;5.50;4.20;;;;;;;;;;4936319;29;20223;-71
2022/02/15 05:08:03;;;;;;;5.57;4.77;;;;;;;;;;4935277;28;20223;-72
2022/02/15 05:10:31;;;;;;;6.63;4.83;;;;;;;;;;4916243;29;20639;-72
2022/02/15 05:13:06;;;;;;;6.17;4.43;;;;;;;;;;4904179;29;20740;-71
2022/02/15 05:15:43;;;;;;;4.60;4.13;;;;;;;;;;4895650;29;20230;-71
2022/02/15 05:18:18;;;;;;;6.97;4.50;;;;;;;;;;4904461;29;20243;-71
2022/02/15 05:20:51;;;;;;;5.20;4.70;;;;;;;;;;4908545;29;20277;-71
2022/02/15 05:23:20;;;;;;;7.13;5.43;;;;;;;;;;4936220;28;20243;-71
2022/02/15 05:25:48;;;;;;;5.90;4.80;;;;;;;;;;4899663;29;20226;-72
2022/02/15 05:28:48;;;;;;;5.90;4.90;;;;;;;;;;4922934;29;20701;-72
2022/02/15 05:31:13;;;;;;;8.23;5.13;;;;;;;;;;4923570;28;20285;-70
2022/02/15 05:33:42;;;;;;;5.77;4.83;;;;;;;;;;4913508;29;20239;-70
2022/02/15 05:36:12;;;;;;;8.80;4.97;;;;;;;;;;4921105;28;20219;-70
2022/02/15 05:38:40;;;;;;;7.03;4.60;;;;;;;;;;4907068;29;20233;-71
2022/02/15 05:41:06;;;;;;;7.20;4.80;;;;;;;;;;4916901;29;20219;-71
2022/02/15 05:43:35;;;;;;;10.30;5.73;;;;;;;;;;4902610;29;20723;-71
2022/02/15 05:46:08;;;;;;;6.63;5.07;;;;;;;;;;4906985;29;20220;-72
2022/02/15 05:48:40;;;;;;;8.40;6.00;;;;;;;;;;4911710;29;20231;-70
2022/02/15 05:51:24;;;;;;;6.73;5.33;;;;;;;;;;4910096;29;20243;-71
2022/02/15 05:53:56;;;;;;;8.17;6.03;;;;;;;;;;4992556;23;20224;-69
2022/02/15 05:56:31;;;;;;;8.13;6.10;;;;;;;;;;4895006;29;20251;-70
2022/02/15 05:59:08;;;;;;;8.63;5.97;;;;;;;;;;4897695;29;20609;-71
2022/02/15 06:01:54;;;;;;;8.53;6.00;;;;;;;;;;4905516;29;20258;-70
2022/02/15 06:04:23;;;;;;;6.60;5.90;;;;;;;;;;4931279;28;20278;-70
2022/02/15 06:06:57;;;;;;;7.33;6.10;;;;;;;;;;4894750;29;20238;-71
2022/02/15 06:09:24;;;;;;;8.97;6.20;;;;;;;;;;4882318;29;20697;-72
2022/02/15 06:11:51;;;;;;;6.87;6.03;;;;;;;;;;4919581;29;20225;-71
2022/02/15 06:14:20;;;;;;;11.63;7.07;;;;;;;;;;4920774;29;20235;-72
2022/02/15 06:16:52;;;;;;;8.63;6.90;;;;;;;;;;4897166;29;20224;-71
2022/02/15 06:19:22;;;;;;;8.03;6.80;;;;;;;;;;4896164;29;20227;-71
2022/02/15 06:21:49;;;;;;;10.23;7.40;;;;;;;;;;4898840;29;20306;-71
2022/02/15 06:24:24;;;;;;;11.23;7.47;;;;;;;;;;4918239;29;20232;-72
2022/02/15 06:27:01;;;;;;;11.70;7.73;;;;;;;;;;4887817;29;20219;-71
2022/02/15 06:29:30;;;;;;;8.73;6.97;;;;;;;;;;4897998;29;20231;-71
2022/02/15 06:32:03;;;;;;;9.70;6.90;;;;;;;;;;4908126;29;20314;-71
2022/02/15 06:34:30;;;;;;;9.57;7.50;;;;;;;;;;4903082;29;20624;-72
2022/02/15 06:37:04;;;;;;;9.63;7.83;;;;;;;;;;4914454;29;20697;-71
2022/02/15 06:39:36;;;;;;;9.43;7.60;;;;;;;;;;4912980;29;20748;-71
2022/02/15 06:42:06;;;;;;;13.10;8.70;;;;;;;;;;4899490;28;20216;-73
2022/02/15 06:44:34;;;;;;;11.40;8.13;;;;;;;;;;4931890;29;20250;-71
2022/02/15 06:47:03;;;;;;;10.37;9.30;;;;;;;;;;4897614;29;20224;-71
2022/02/15 06:49:34;;;;;;;11.37;8.10;;;;;;;;;;4896487;29;20647;-71
2022/02/15 06:52:16;;;;;;;9.93;7.57;;;;;;;;;;4916521;28;20229;-71
2022/02/15 06:54:46;;;;;;;9.57;8.57;;;;;;;;;;4877752;29;1141974;-71
2022/02/15 06:57:17;;;;;;;9.30;8.30;;;;;;;;;;4943675;28;20670;-71
2022/02/15 06:59:43;;;;;;;11.77;9.23;;;;;;;;;;4929248;29;20227;-71
2022/02/15 07:02:09;;;;;;;12.40;8.70;;;;;;;;;;4884308;28;20275;-70
2022/02/15 07:04:37;;;;;;;11.90;8.67;;;;;;;;;;4920466;29;20233;-72
2022/02/15 07:07:05;;;;;;;9.07;8.17;;;;;;;;;;4923601;29;20674;-72
2022/02/15 07:09:35;;;;;;;11.43;8.10;;;;;;;;;;4937769;29;20239;-71
2022/02/15 07:12:10;;;;;;;9.37;8.17;;;;;;;;;;4899629;28;20709;-72
2022/02/15 07:14:56;;;;;;;14.70;8.83;;;;;;;;;;4882086;29;20722;-71
2022/02/15 07:17:39;;;;;;;11.83;8.50;;;;;;;;;;4886057;29;20708;-71
2022/02/15 07:20:10;;;;;;;12.87;8.93;;;;;;;;;;4930433;28;20227;-72
2022/02/15 07:22:59;;;;;;;11.33;8.33;;;;;;;;;;4886627;29;20220;-72
2022/02/15 07:25:38;;;;;;;10.33;8.47;;;;;;;;;;4901084;29;20228;-71
2022/02/15 07:28:34;;;;;;;15.17;9.50;;;;;;;;;;4896455;29;20235;-71
2022/02/15 07:31:02;;;;;;;10.83;9.50;;;;;;;;;;4899843;29;20271;-73
2022/02/15 07:33:35;;;;;;;15.57;11.63;;;;;;;;;;4884863;29;20674;-72
2022/02/15 07:36:03;;;;;;;12.87;9.30;;;;;;;;;;4925259;29;20287;-70
2022/02/15 07:38:29;;;;;;;13.57;8.93;;;;;;;;;;4906635;29;20231;-70
2022/02/15 07:40:57;;;;;;;10.93;8.67;;;;;;;;;;4915826;29;20315;-71
2022/02/15 07:43:25;;;;;;;9.33;8.43;;;;;;;;;;4906778;28;20658;-70
2022/02/15 07:45:57;;;;;;;11.30;7.87;;;;;;;;;;4902347;29;20251;-72
2022/02/15 07:48:28;;;;;;;12.47;8.37;;;;;;;;;;4911510;28;20215;-70
2022/02/15 07:50:56;;;;;;;10.77;8.50;;;;;;;;;;4950908;28;20230;-71
2022/02/15 07:53:24;;;;;;;10.70;8.50;;;;;;;;;;4912774;29;20303;-72
2022/02/15 07:55:50;;;;;;;10.17;7.70;;;;;;;;;;4901113;29;20234;-71
2022/02/15 07:58:15;;;;;;;8.63;7.23;;;;;;;;;;4888245;28;20222;-72
2022/02/15 08:00:41;;;;;;;8.63;7.70;;;;;;;;;;4935313;29;20216;-73
2022/02/15 08:03:10;;;;;;;8.33;7.50;;;;;;;;;;4933751;28;20228;-73
2022/02/15 08:05:38;;;;;;;8.70;7.70;;;;;;;;;;4916607;29;20220;-72
2022/02/15 08:08:11;;;;;;;8.80;6.97;;;;;;;;;;4901775;28;20247;-71
2022/02/15 08:10:37;;;;;;;8.83;7.40;;;;;;;;;;4951873;28;20677;-72
2022/02/15 08:13:05;;;;;;;11.47;6.97;;;;;;;;;;4918548;29;20232;-72
2022/02/15 08:15:32;;;;;;;7.93;7.00;;;;;;;;;;4919515;29;20311;-72
2022/02/15 08:18:01;;;;;;;8.60;7.70;;;;;;;;;;4919256;29;20235;-71
2022/02/15 08:20:29;;;;;;;8.13;7.30;;;;;;;;;;4919043;29;20235;-71
2022/02/15 08:22:57;;;;;;;10.50;8.37;;;;;;;;;;4918873;29;20225;-72
2022/02/15 08:25:23;;;;;;;11.53;8.00;;;;;;;;;;4885737;29;20299;-71
2022/02/15 08:27:50;;;;;;;10.77;7.90;;;;;;;;;;4900630;29;20240;-71
2022/02/15 08:30:19;;;;;;;8.80;7.90;;;;;;;;;;4932332;28;20709;-72
2022/02/15 08:32:46;;;;;;;10.10;7.63;;;;;;;;;;4920258;29;20232;-71
2022/02/15 08:35:19;;;;;;;8.07;7.27;;;;;;;;;;4889434;29;20809;-70
2022/02/15 08:37:45;;;;;;;8.67;7.80;;;;;;;;;;4917186;29;20296;-71
2022/02/15 08:40:14;;;;;;;11.43;8.90;;;;;;;;;;4930024;28;20685;-72
2022/02/15 08:42:44;;;;;;;9.77;7.70;;;;;;;;;;4951188;28;20696;-70
2022/02/15 08:45:12;;;;;;;9.60;8.50;;;;;;;;;;4921230;29;20227;-70
2022/02/15 08:47:38;;;;;;;9.33;8.30;;;;;;;;;;4916356;29;20299;-70
2022/02/15 08:50:04;;;;;;;8.30;6.60;;;;;;;;;;4911136;28;20236;-73
2022/02/15 08:52:31;;;;;;;8.90;6.83;;;;;;;;;;4935701;28;20226;-71
2022/02/15 08:54:59;;;;;;;8.70;6.87;;;;;;;;;;4925227;29;20248;-72
2022/02/15 08:57:27;;;;;;;7.23;6.10;;;;;;;;;;4900411;29;20239;-72
2022/02/15 08:59:55;;;;;;;7.90;5.90;;;;;;;;;;4907902;29;20792;-71
2022/02/15 09:02:21;;;;;;;6.13;5.53;;;;;;;;;;4901790;28;21025;-71
2022/02/15 09:04:49;;;;;;;6.57;5.50;;;;;;;;;;4928489;28;20256;-71
2022/02/15 09:07:15;;;;;;;7.50;5.50;;;;;;;;;;4899726;29;20296;-70
2022/02/15 09:09:40;;;;;;;5.83;5.30;;;;;;;;;;4900938;29;20310;-70
2022/02/15 09:12:06;;;;;;;6.50;5.57;;;;;;;;;;4931324;29;20224;-71
2022/02/15 09:14:32;;;;;;;6.43;5.13;;;;;;;;;;4934513;29;20252;-70
2022/02/15 09:16:59;;;;;;;5.93;5.33;;;;;;;;;;4919434;29;20227;-71
2022/02/15 09:19:26;;;;;;;7.23;6.13;;;;;;;;;;4931892;28;20239;-71
2022/02/15 09:21:56;;;;;;;9.23;7.10;;;;;;;;;;4900225;29;20609;-71
2022/02/15 09:24:24;;;;;;;8.57;7.50;;;;;;;;;;4916168;29;20232;-71
2022/02/15 09:26:56;;;;;;;7.67;6.47;;;;;;;;;;4926662;28;20350;-72
2022/02/15 09:29:24;;;;;;;9.17;8.20;;;;;;;;;;4916591;29;20224;-71
2022/02/15 09:31:49;;;;;;;10.40;8.23;;;;;;;;;;4950399;28;20616;-71
2022/02/15 09:34:22;;;;;;;10.30;8.47;;;;;;;;;;4917555;28;20669;-71
2022/02/15 09:36:49;;;;;;;9.70;8.53;;;;;;;;;;4865996;29;20275;-71
2022/02/15 09:39:17;;;;;;;11.17;8.73;;;;;;;;;;4910335;29;20232;-70
2022/02/15 09:41:47;;;;;;;12.20;8.93;;;;;;;;;;4929824;29;20714;-70
2022/02/15 09:44:18;;;;;;;11.63;8.33;;;;;;;;;;4916254;29;20843;-70
2022/02/15 09:46:44;;;;;;;14.20;9.50;;;;;;;;;;4933764;28;20732;-71
2022/02/15 09:52:01;;;;;;;9.70;7.50;;;;;;;;;;4901724;29;20228;-72
2022/02/15 09:54:30;;;;;;;8.17;7.37;;;;;;;;;;4890197;29;20228;-70
2022/02/15 09:56:56;;;;;;;8.43;7.30;;;;;;;;;;4883852;29;20313;-71
2022/02/15 09:59:21;;;;;;;8.43;7.07;;;;;;;;;;4913170;29;20239;-72
2022/02/15 10:01:49;;;;;;;6.93;6.27;;;;;;;;;;4933316;29;20226;-71
2022/02/15 10:04:33;;;;;;;8.80;6.67;;;;;;;;;;4932989;28;20623;-72
2022/02/15 10:07:03;;;;;;;9.57;6.83;;;;;;;;;;4902212;29;20641;-72
2022/02/15 10:09:32;;;;;;;7.40;6.70;;;;;;;;;;4913296;29;20228;-73
2022/02/15 10:12:11;;;;;;;9.47;7.13;;;;;;;;;;4930991;28;20231;-71
2022/02/15 10:14:41;;;;;;;12.10;7.03;;;;;;;;;;4930897;29;20259;-72
2022/02/15 10:17:13;;;;;;;10.00;7.40;;;;;;;;;;4930978;28;20235;-71
2022/02/15 10:19:39;;;;;;;8.83;7.07;;;;;;;;;;4917740;29;20262;-71
2022/02/15 10:22:05;;;;;;;8.90;7.50;;;;;;;;;;4913902;29;20710;-71
2022/02/15 10:24:33;;;;;;;8.50;7.23;;;;;;;;;;4914543;29;20232;-71
2022/02/15 10:27:06;;;;;;;9.07;8.17;;;;;;;;;;4887015;29;20275;-71
2022/02/15 10:29:33;;;;;;;9.13;8.23;;;;;;;;;;4917416;29;20706;-71
2022/02/15 10:32:00;;;;;;;11.63;8.43;;;;;;;;;;4919432;29;20235;-71
2022/02/15 10:34:30;;;;;;;11.07;8.53;;;;;;;;;;4898147;29;20248;-71
2022/02/15 10:37:02;;;;;;;9.43;8.00;;;;;;;;;;4910983;29;20230;-71
2022/02/15 10:39:44;;;;;;;11.20;8.23;;;;;;;;;;4917616;29;20258;-71
2022/02/15 10:42:21;;;;;;;10.13;8.63;;;;;;;;;;4887310;29;20306;-72
2022/02/15 10:44:53;;;;;;;10.53;9.03;;;;;;;;;;4882701;29;20654;-72
2022/02/15 10:47:27;;;;;;;11.00;9.63;;;;;;;;;;4927545;28;20223;-72
2022/02/15 10:49:56;;;;;;;10.40;9.00;;;;;;;;;;4949214;28;20235;-72
2022/02/15 10:52:25;;;;;;;11.63;9.03;;;;;;;;;;4887486;29;20240;-71
2022/02/15 10:54:50;;;;;;;10.00;9.00;;;;;;;;;;4913932;29;20232;-71
2022/02/15 10:57:17;;;;;;;9.60;8.60;;;;;;;;;;4910214;28;20282;-71
2022/02/15 10:59:52;;;;;;;10.50;8.90;;;;;;;;;;4933069;29;20223;-71
2022/02/15 11:02:23;;;;;;;10.13;9.13;;;;;;;;;;4919607;29;20288;-73
2022/02/15 11:04:55;;;;;;;10.03;8.57;;;;;;;;;;4929166;29;20255;-73
2022/02/15 11:07:31;;;;;;;9.83;8.83;;;;;;;;;;4927080;28;20230;-72
2022/02/15 11:10:05;;;;;;;9.90;8.90;;;;;;;;;;4918176;29;20254;-72
2022/02/15 11:12:55;;;;;;;10.83;9.73;;;;;;;;;;4921169;29;20239;-71
2022/02/15 11:15:22;;;;;;;10.77;9.47;;;;;;;;;;4913947;29;20228;-72
2022/02/15 11:17:58;;;;;;;10.23;9.10;;;;;;;;;;4927538;29;20268;-71
2022/02/15 11:20:29;;;;;;;10.10;9.10;;;;;;;;;;4914370;29;20224;-72
2022/02/15 11:23:00;;;;;;;10.47;9.47;;;;;;;;;;4911488;29;20243;-73
2022/02/15 11:25:32;;;;;;;12.67;10.47;;;;;;;;;;4932321;28;20251;-72
2022/02/15 11:28:05;;;;;;;11.20;10.20;;;;;;;;;;4921026;28;20667;-72
2022/02/15 11:30:41;;;;;;;11.17;10.00;;;;;;;;;;4901110;29;20230;-73
2022/02/15 11:33:09;;;;;;;11.27;10.17;;;;;;;;;;4928679;28;20241;-71
2022/02/15 11:35:37;;;;;;;12.90;10.50;;;;;;;;;;4917419;29;20223;-73
2022/02/15 11:38:07;;;;;;;12.60;10.17;;;;;;;;;;4887680;29;20231;-72
2022/02/15 11:40:34;;;;;;;12.20;10.47;;;;;;;;;;4898202;29;20611;-74
2022/02/15 11:43:06;;;;;;;11.37;10.17;;;;;;;;;;4940978;28;20233;-73
2022/02/15 11:45:32;;;;;;;10.90;9.80;;;;;;;;;;4932305;29;20239;-72
2022/02/15 11:48:06;;;;;;;11.00;9.70;;;;;;;;;;4906134;29;20306;-72
2022/02/15 11:50:43;;;;;;;10.07;9.10;;;;;;;;;;4924259;29;20219;-73
2022/02/15 11:53:11;;;;;;;10.40;9.30;;;;;;;;;;4931234;29;20238;-72
2022/02/15 11:55:41;;;;;;;11.33;9.80;;;;;;;;;;4933944;28;20219;-72
2022/02/15 11:58:10;;;;;;;9.83;8.93;;;;;;;;;;4905049;29;20224;-73
2022/02/15 12:00:39;;;;;;;10.20;9.00;;;;;;;;;;4927927;29;20224;-71
2022/02/15 12:03:07;;;;;;;10.20;9.17;;;;;;;;;;4897524;29;20792;-73
2022/02/15 12:05:37;;;;;;;9.77;8.77;;;;;;;;;;4881923;29;20259;-72
2022/02/15 12:08:03;;;;;;;9.73;8.10;;;;;;;;;;4924052;29;20690;-72
2022/02/15 12:10:44;;;;;;;9.07;7.90;;;;;;;;;;4908654;29;20283;-73
2022/02/15 12:13:13;;;;;;;8.00;7.20;;;;;;;;;;4910752;29;20234;-72
2022/02/15 12:15:42;;;;;;;8.77;7.23;;;;;;;;;;4903572;29;20375;-73
2022/02/15 12:18:10;;;;;;;7.70;6.90;;;;;;;;;;4916217;29;20231;-72
2022/02/15 12:20:38;;;;;;;8.77;7.40;;;;;;;;;;4897916;29;20617;-73
2022/02/15 12:23:08;;;;;;;8.70;7.57;;;;;;;;;;4889160;29;20216;-74
2022/02/15 12:25:56;;;;;;;8.87;7.97;;;;;;;;;;4906722;29;20669;-72
2022/02/15 12:28:25;;;;;;;8.37;7.57;;;;;;;;;;4901582;29;20271;-73
2022/02/15 12:30:51;;;;;;;8.97;8.17;;;;;;;;;;4907198;29;20240;-71
2022/02/15 12:33:19;;;;;;;9.43;8.50;;;;;;;;;;4914232;29;20228;-71
2022/02/15 12:35:52;;;;;;;8.60;7.80;;;;;;;;;;4914914;29;20228;-72
2022/02/15 12:38:18;;;;;;;9.13;8.17;;;;;;;;;;4906267;28;20215;-72
2022/02/15 12:40:43;;;;;;;8.77;7.90;;;;;;;;;;4918853;29;20250;-72
2022/02/15 12:43:14;;;;;;;8.10;7.30;;;;;;;;;;4927968;29;20216;-72
2022/02/15 12:45:46;;;;;;;8.63;7.77;;;;;;;;;;4915767;29;20740;-72
2022/02/15 12:48:11;;;;;;;8.97;7.50;;;;;;;;;;4905413;28;20310;-72
2022/02/15 12:50:39;;;;;;;9.83;7.47;;;;;;;;;;4936823;28;20247;-74
2022/02/15 12:53:05;;;;;;;8.60;7.80;;;;;;;;;;4899781;29;20601;-72
2022/02/15 12:55:31;;;;;;;9.87;8.13;;;;;;;;;;4916633;29;20286;-72
2022/02/15 12:57:56;;;;;;;8.67;7.73;;;;;;;;;;4918359;29;20328;-72
2022/02/15 13:00:28;;;;;;;9.40;8.43;;;;;;;;;;4907287;29;20651;-72
2022/02/15 13:02:56;;;;;;;9.70;8.70;;;;;;;;;;4933873;28;20311;-73
2022/02/15 13:05:31;;;;;;;10.73;7.93;;;;;;;;;;4902100;29;20251;-72
2022/02/15 13:07:57;;;;;;;10.17;8.50;;;;;;;;;;4903615;29;20235;-72
2022/02/15 13:10:23;;;;;;;10.53;8.50;;;;;;;;;;4901699;29;20228;-72
2022/02/15 13:12:53;;;;;;;12.10;8.73;;;;;;;;;;4917114;29;20697;-71
2022/02/15 13:15:20;;;;;;;11.03;8.40;;;;;;;;;;4922420;29;20220;-72
2022/02/15 13:17:46;;;;;;;9.87;8.87;;;;;;;;;;4927833;28;20736;-71
2022/02/15 13:20:18;;;;;;;10.77;8.77;;;;;;;;;;4914484;29;20232;-71
2022/02/15 13:23:03;;;;;;;10.77;8.50;;;;;;;;;;4926022;29;20232;-71
2022/02/15 13:25:48;;;;;;;9.67;8.30;;;;;;;;;;4918186;29;20302;-70
2022/02/15 13:28:26;;;;;;;9.47;8.30;;;;;;;;;;4917623;28;20220;-70
2022/02/15 13:30:59;;;;;;;10.00;8.53;;;;;;;;;;4899760;29;20239;-72
2022/02/15 13:33:37;;;;;;;10.70;9.60;;;;;;;;;;4897421;29;20228;-70
2022/02/15 13:36:03;;;;;;;10.93;9.07;;;;;;;;;;4950304;28;20689;-72
2022/02/15 13:38:31;;;;;;;10.40;9.30;;;;;;;;;;4912058;29;20315;-70
2022/02/15 13:40:56;;;;;;;10.80;9.67;;;;;;;;;;4918977;29;20250;-71
2022/02/15 13:43:26;;;;;;;10.27;9.00;;;;;;;;;;4914117;29;20710;-71
2022/02/15 13:45:57;;;;;;;10.87;9.67;;;;;;;;;;4881542;29;20272;-73
2022/02/15 13:48:26;;;;;;;11.33;10.13;;;;;;;;;;4880352;29;20300;-72
2022/02/15 13:50:58;;;;;;;10.87;9.70;;;;;;;;;;4932791;29;20807;-72
2022/02/15 13:53:26;;;;;;;11.20;9.73;;;;;;;;;;4933523;28;20231;-73
2022/02/15 13:55:51;;;;;;;13.10;10.60;;;;;;;;;;4885878;29;20228;-73
2022/02/15 13:58:24;;;;;;;13.67;10.40;;;;;;;;;;4879398;29;20219;-73
2022/02/15 14:00:49;;;;;;;13.23;11.40;;;;;;;;;;4916853;29;20298;-74
2022/02/15 14:03:15;;;;;;;12.60;10.90;;;;;;;;;;4881994;29;20236;-74
2022/02/15 14:05:41;;;;;;;13.50;11.97;;;;;;;;;;4914648;29;20220;-71
2022/02/15 14:08:08;;;;;;;14.63;12.50;;;;;;;;;;4914206;29;20224;-73
2022/02/15 14:10:41;;;;;;;13.87;12.30;;;;;;;;;;4912692;29;20227;-73
2022/02/15 14:13:06;;;;;;;14.23;12.07;;;;;;;;;;4918015;28;20295;-71
2022/02/15 14:15:32;;;;;;;15.83;12.67;;;;;;;;;;4921747;29;20227;-71
2022/02/15 14:18:06;;;;;;;14.97;13.37;;;;;;;;;;4929945;29;20235;-72
2022/02/15 14:20:31;;;;;;;13.83;12.33;;;;;;;;;;4910339;29;20303;-72
2022/02/15 14:22:57;;;;;;;13.93;12.03;;;;;;;;;;4934002;28;20224;-72
2022/02/15 14:25:25;;;;;;;13.43;12.00;;;;;;;;;;4923038;29;20231;-71
2022/02/15 14:27:55;;;;;;;14.33;12.30;;;;;;;;;;4915118;29;20581;-71
2022/02/15 14:30:23;;;;;;;13.57;12.07;;;;;;;;;;4892610;28;20222;-72
2022/02/15 14:32:51;;;;;;;13.00;11.37;;;;;;;;;;4933017;29;20227;-71
2022/02/15 14:35:17;;;;;;;12.50;11.20;;;;;;;;;;4924638;29;20220;-72
2022/02/15 14:37:43;;;;;;;13.93;11.60;;;;;;;;;;4914437;29;20236;-72
2022/02/15 14:40:10;;;;;;;14.17;11.43;;;;;;;;;;4904435;28;20777;-71
2022/02/15 14:42:43;;;;;;;13.37;11.17;;;;;;;;;;4918146;29;20254;-72
2022/02/15 14:45:09;;;;;;;12.73;11.43;;;;;;;;;;4915714;29;20228;-73
2022/02/15 14:47:35;;;;;;;14.67;11.23;;;;;;;;;;4898537;29;20296;-73
2022/02/15 14:50:01;;;;;;;12.50;11.20;;;;;;;;;;4910694;29;20681;-71
2022/02/15 14:52:29;;;;;;;13.37;11.23;;;;;;;;;;4896600;29;20715;-71
2022/02/15 14:54:55;;;;;;;12.53;11.23;;;;;;;;;;4879335;29;20229;-71
2022/02/15 14:57:23;;;;;;;11.30;10.20;;;;;;;;;;4890985;29;20224;-72